This is the latest recevied weather packets stored in our database for station/object KI5GCD-13. If no packets are shown the sender has not sent any weather packets the latest 10 day(s).
| Time | Temp. | Humidity | Pressure | Rain* | Wind** | Luminosity | Snow |
|---|---|---|---|---|---|---|---|
| 1777827587 | 22.22° C | 47% | 1013 hPa | 0 mm | 5.36 m/s, 206° | - | - |
| 1777827287 | 22.22° C | 48% | 1013 hPa | 0 mm | 1.34 m/s, 244° | - | - |
| 1777826988 | 21.67° C | 48% | 1013.4 hPa | 0 mm | 2.68 m/s, 247° | - | - |
| 1777826687 | 21.67° C | 48% | 1013.4 hPa | 0 mm | 3.58 m/s, 199° | - | - |
| 1777826387 | 22.22° C | 48% | 1013.3 hPa | 0 mm | 1.79 m/s, 251° | - | - |
| 1777826087 | 21.67° C | 48% | 1013.4 hPa | 0 mm | 1.79 m/s, 256° | - | - |
| 1777825787 | 22.22° C | 50% | 1013.3 hPa | 0 mm | 0.45 m/s, 227° | - | - |
| 1777825487 | 21.67° C | 48% | 1013.5 hPa | 0 mm | 1.79 m/s, 147° | - | - |
| 1777825187 | 21.11° C | 49% | 1013.6 hPa | 0 mm | 2.68 m/s, 263° | - | - |
| 1777824887 | 21.11° C | 49% | 1013.7 hPa | 0 mm | 1.79 m/s, 172° | - | - |
| 1777824587 | 21.11° C | 48% | 1013.8 hPa | 0 mm | 0.89 m/s, 220° | - | - |
| 1777824288 | 21.11° C | 49% | 1013.5 hPa | 0 mm | 0.89 m/s, 226° | - | - |
| 1777823987 | 20.56° C | 49% | 1013.8 hPa | 0 mm | 2.24 m/s, 206° | - | - |
| 1777823687 | 20.56° C | 49% | 1013.8 hPa | 0 mm | 2.24 m/s, 213° | - | - |
| 1777823387 | 20.56° C | 48% | 1013.7 hPa | 0 mm | 2.24 m/s, 218° | - | - |
| 1777823087 | 20° C | 50% | 1013.8 hPa | 0 mm | 0.89 m/s, 198° | - | - |
| 1777822787 | 19.44° C | 50% | 1013.8 hPa | 0 mm | 1.79 m/s, 232° | - | - |
| 1777822487 | 19.44° C | 51% | 1013.8 hPa | 0 mm | 1.79 m/s, 202° | - | - |
| 1777822187 | 19.44° C | 51% | 1014 hPa | 0 mm | 0.89 m/s, 250° | - | - |
| 1777821887 | 19.44° C | 51% | 1014.2 hPa | 0 mm | 2.24 m/s, 185° | - | - |
| 1777821587 | 18.89° C | 53% | 1014.2 hPa | 0 mm | 1.34 m/s, 251° | - | - |
| 1777821287 | 19.44° C | 51% | 1014 hPa | 0 mm | 1.34 m/s, 298° | - | - |
| 1777820987 | 18.89° C | 51% | 1014 hPa | 0 mm | 2.68 m/s, 195° | - | - |
| 1777820687 | 18.33° C | 52% | 1014.4 hPa | 0 mm | 0.89 m/s, 249° | - | - |
| 1777820387 | 18.89° C | 51% | 1014.5 hPa | 0 mm | 0.45 m/s, 223° | - | - |
* Rain latest hour (hover to see other rain measurements)
** Current wind speed in m/s (hover to see current wind gust speed)